Agra, Kansas
Current Conditions -  °F | °C
As of 8:27 AM on Friday 31 Oct 2014 (Local Time) from KHLC Reporting Station
Overcast Overcast  
Wind Chill: 23°   Ceiling: 1600
Heat Index: 33°   Visibility: 10mi
Dew Point: 26°   Wind: 15mph
Humidity: 75%   Direction: 50°NE
Pressure: 30.56"   Gusts: NA
Location:  39.76°N, 99.12°W
Report Text: KHLC 311327Z AUTO 05013KT 10SM OVC016 01/M03 A3056 RMK AO2 T00061033
Loading
Personal Weather Stations






























Interactive Weather Map
Tropical Storm Tracking
New forecast layout! Learn more

10-Day Weather Forecast

Advertisements
Track Severe Weather on mobile